Time;durP1;ratioP1;P1;durP2;ratioP2;P2;SDS_P1;SDS_P2;PMS_P1;PMS_P2;Temp;Humidity;BMP_temperature;BMP_pressure;BME280_temperature;BME280_humidity;BME280_pressure;Samples;Min_cycle;Max_cycle;Signal;HPM_P1;HPM_P2
2023/12/21 00:01:59;;;;;;;14.07;3.90;;;;;;;5.19;100.00;99288.66;5069077;28;20038;-80
2023/12/21 00:04:25;;;;;;;8.73;4.07;;;;;;;5.17;100.00;99284.50;5059324;28;20509;-79
2023/12/21 00:06:51;;;;;;;12.10;4.03;;;;;;;5.20;100.00;99284.19;5056687;28;20541;-79
2023/12/21 00:09:16;;;;;;;9.27;4.88;;;;;;;5.19;100.00;99269.31;5080526;28;20044;-79
2023/12/21 00:11:42;;;;;;;7.03;4.45;;;;;;;5.20;100.00;99257.75;5064032;28;20050;-80
2023/12/21 00:14:07;;;;;;;10.73;5.03;;;;;;;5.20;100.00;99249.81;5085532;28;20034;-79
2023/12/21 00:16:32;;;;;;;14.13;5.10;;;;;;;5.25;100.00;99247.50;5085645;28;20270;-78
2023/12/21 00:18:58;;;;;;;15.67;5.57;;;;;;;5.24;100.00;99232.59;5069010;28;20035;-80
2023/12/21 00:21:23;;;;;;;11.97;4.97;;;;;;;5.23;100.00;99223.84;5067446;28;20373;-80
2023/12/21 00:23:48;;;;;;;8.03;5.10;;;;;;;5.23;100.00;99217.72;5066426;28;20280;-79
2023/12/21 00:26:14;;;;;;;7.50;4.23;;;;;;;5.23;100.00;99217.72;5066431;28;20028;-79
2023/12/21 00:28:39;;;;;;;11.82;5.03;;;;;;;5.10;100.00;99207.63;5084387;28;20364;-79
2023/12/21 00:31:05;;;;;;;10.10;5.17;;;;;;;5.12;100.00;99199.53;5068301;28;20101;-79
2023/12/21 00:33:30;;;;;;;11.80;5.15;;;;;;;5.14;100.00;99197.53;5067590;28;20032;-79
2023/12/21 00:35:55;;;;;;;18.90;5.30;;;;;;;5.06;100.00;99193.91;5085452;28;20368;-81
2023/12/21 00:38:21;;;;;;;13.77;5.73;;;;;;;5.20;100.00;99194.25;5084923;28;20031;-79
2023/12/21 00:40:46;;;;;;;12.17;4.80;;;;;;;4.99;100.00;99178.88;5064521;28;20290;-79
2023/12/21 00:43:11;;;;;;;9.80;4.38;;;;;;;5.01;100.00;99169.78;5081479;28;20031;-79
2023/12/21 00:45:37;;;;;;;7.70;4.22;;;;;;;5.11;100.00;99166.13;5067900;28;20028;-78
2023/12/21 00:48:02;;;;;;;6.82;3.80;;;;;;;5.13;100.00;99172.91;5079938;28;20110;-79
2023/12/21 00:50:28;;;;;;;8.48;4.60;;;;;;;5.10;100.00;99162.63;5057026;28;20036;-80
2023/12/21 00:52:53;;;;;;;7.53;4.23;;;;;;;5.20;100.00;99159.84;5060090;28;20027;-80
2023/12/21 00:55:19;;;;;;;7.87;4.50;;;;;;;5.04;100.00;99158.84;5067016;28;20356;-79
2023/12/21 00:57:44;;;;;;;8.52;4.57;;;;;;;4.96;100.00;99155.38;5068281;28;20386;-81
2023/12/21 01:00:10;;;;;;;8.90;4.85;;;;;;;5.04;100.00;99152.75;5067965;28;20032;-79
2023/12/21 01:02:36;;;;;;;11.50;5.25;;;;;;;5.09;100.00;99147.78;5063600;28;20028;-80
2023/12/21 01:05:02;;;;;;;7.82;4.63;;;;;;;5.01;100.00;99143.31;5084727;28;20036;-80
2023/12/21 01:07:28;;;;;;;;;;;;;;;5.08;100.00;99135.56;5085133;28;20050;-80
2023/12/21 01:09:53;;;;;;;12.02;5.70;;;;;;;5.03;100.00;99121.97;5067868;28;20351;-79
2023/12/21 01:12:18;;;;;;;7.47;4.70;;;;;;;5.05;100.00;99115.53;5068067;28;20028;-80
2023/12/21 01:14:44;;;;;;;8.67;4.90;;;;;;;4.90;100.00;99105.81;5084327;28;20085;-79
2023/12/21 01:17:09;;;;;;;9.47;5.30;;;;;;;5.07;100.00;99118.81;5068144;28;20038;-80
2023/12/21 01:19:35;;;;;;;11.85;5.30;;;;;;;5.08;100.00;99106.44;5084550;28;20282;-80
2023/12/21 01:22:00;;;;;;;10.70;5.05;;;;;;;5.11;100.00;99097.34;5085082;28;20590;-80
2023/12/21 01:24:26;;;;;;;12.63;5.53;;;;;;;5.12;100.00;99093.69;5084434;28;20068;-79
2023/12/21 01:26:51;;;;;;;14.10;5.20;;;;;;;5.09;100.00;99094.88;5059627;28;20290;-80
2023/12/21 01:29:17;;;;;;;9.15;4.45;;;;;;;5.13;100.00;99085.59;5056505;28;20270;-78
2023/12/21 01:31:42;;;;;;;9.63;5.70;;;;;;;5.10;100.00;99088.56;5056054;28;20135;-78
2023/12/21 01:34:07;;;;;;;12.67;5.70;;;;;;;5.15;100.00;99088.06;5051859;28;20032;-78
2023/12/21 01:36:33;;;;;;;15.40;6.03;;;;;;;5.06;100.00;99069.56;5060378;28;20312;-79
2023/12/21 01:38:58;;;;;;;13.40;5.77;;;;;;;5.03;100.00;99061.13;5056989;28;20098;-78
2023/12/21 01:41:24;;;;;;;14.37;5.20;;;;;;;5.10;100.00;99063.94;5068147;28;20471;-78
2023/12/21 01:43:50;;;;;;;12.00;5.13;;;;;;;5.11;100.00;99047.09;5087322;28;20380;-79
2023/12/21 01:46:16;;;;;;;8.23;4.43;;;;;;;5.26;100.00;99050.69;5089012;28;20069;-80
2023/12/21 01:48:42;;;;;;;7.68;3.65;;;;;;;5.02;100.00;99035.69;5089207;28;20463;-79
2023/12/21 01:51:09;;;;;;;;;;;;;;;5.22;100.00;99049.34;5089166;28;20073;-78
2023/12/21 01:53:36;;;;;;;9.25;5.10;;;;;;;5.32;100.00;99041.25;5084310;28;19923;-80
2023/12/21 01:56:03;;;;;;;7.75;3.72;;;;;;;5.25;100.00;99035.81;5086413;28;20063;-80
2023/12/21 01:58:30;;;;;;;7.47;4.10;;;;;;;5.19;100.00;99020.59;5087542;28;20039;-79
2023/12/21 02:00:57;;;;;;;7.45;3.60;;;;;;;5.30;100.00;99020.25;5089196;28;20522;-80
2023/12/21 02:03:25;;;;;;;6.90;3.42;;;;;;;5.31;100.00;99024.53;5089141;28;20036;-78
2023/12/21 02:05:50;;;;;;;7.82;3.42;;;;;;;5.31;100.00;99018.41;5085610;28;20545;-78
2023/12/21 02:08:16;;;;;;;5.85;3.25;;;;;;;5.29;100.00;99010.63;5066935;28;20024;-78
2023/12/21 02:10:41;;;;;;;8.30;3.85;;;;;;;5.29;100.00;99006.19;5086625;28;20048;-80
2023/12/21 02:13:06;;;;;;;7.73;3.83;;;;;;;5.32;100.00;99001.56;5076679;28;20147;-78
2023/12/21 02:15:32;;;;;;;7.10;3.57;;;;;;;5.46;100.00;99006.94;5081287;28;20032;-77
2023/12/21 02:18:01;;;;;;;8.15;3.55;;;;;;;5.52;100.00;99004.59;5088366;28;20293;-78
2023/12/21 02:20:27;;;;;;;6.45;3.10;;;;;;;5.49;100.00;98996.00;5071711;28;20035;-78
2023/12/21 02:22:56;;;;;;;9.25;3.70;;;;;;;5.45;100.00;98988.56;5070083;28;20031;-81
2023/12/21 02:25:22;;;;;;;7.07;3.30;;;;;;;5.40;100.00;98981.16;5068567;28;20487;-80
2023/12/21 02:27:51;;;;;;;5.75;3.22;;;;;;;5.44;100.00;98965.78;5083752;28;20032;-79
2023/12/21 02:30:17;;;;;;;4.70;2.90;;;;;;;5.48;100.00;98967.06;5074699;28;20040;-79
2023/12/21 02:32:42;;;;;;;6.88;3.22;;;;;;;5.54;100.00;98966.38;5063787;28;20033;-78
2023/12/21 02:35:07;;;;;;;6.20;3.03;;;;;;;5.61;100.00;98977.91;5055038;28;20063;-79
2023/12/21 02:37:33;;;;;;;6.23;3.10;;;;;;;5.61;100.00;98961.22;5077309;28;20298;-79
2023/12/21 02:39:58;;;;;;;4.70;3.20;;;;;;;5.57;100.00;98966.03;5088151;28;20032;-79
2023/12/21 02:42:23;;;;;;;4.87;3.30;;;;;;;5.55;100.00;98951.31;5062767;28;20060;-81
2023/12/21 02:44:49;;;;;;;6.03;3.77;;;;;;;5.68;100.00;98964.81;5079222;28;20031;-79
2023/12/21 02:47:14;;;;;;;5.50;3.07;;;;;;;5.74;100.00;98960.66;5060395;28;20040;-81
2023/12/21 02:49:39;;;;;;;8.13;4.40;;;;;;;5.71;100.00;98956.50;5066917;28;20027;-79
2023/12/21 02:52:05;;;;;;;8.07;4.53;;;;;;;5.69;100.00;98940.00;5080771;28;20278;-79
2023/12/21 02:54:31;;;;;;;9.82;4.43;;;;;;;5.70;100.00;98937.16;5070367;28;20035;-80
2023/12/21 02:56:57;;;;;;;6.53;4.47;;;;;;;5.67;100.00;98939.34;5087030;28;20074;-79
2023/12/21 02:59:22;;;;;;;7.93;3.97;;;;;;;5.75;100.00;98947.22;5087852;28;20067;-79
2023/12/21 03:01:47;;;;;;;7.83;4.47;;;;;;;5.84;100.00;98955.94;5068656;28;20032;-80
2023/12/21 03:04:13;;;;;;;7.90;4.85;;;;;;;5.87;100.00;98940.50;5087104;28;20519;-78
2023/12/21 03:06:38;;;;;;;10.88;5.15;;;;;;;5.88;100.00;98947.47;5070700;28;20024;-81
2023/12/21 03:09:04;;;;;;;10.88;5.97;;;;;;;5.78;100.00;98925.66;5081364;28;20040;-80
2023/12/21 03:11:29;;;;;;;11.23;6.30;;;;;;;5.90;100.00;98928.75;5074237;28;20086;-79
2023/12/21 03:13:55;;;;;;;13.20;6.43;;;;;;;5.98;100.00;98919.97;5065660;28;20119;-79
2023/12/21 03:16:20;;;;;;;14.53;6.67;;;;;;;5.96;100.00;98916.66;5078935;28;20119;-79
2023/12/21 03:18:46;;;;;;;13.53;6.93;;;;;;;5.86;100.00;98911.56;5076623;28;20329;-78
2023/12/21 03:21:12;;;;;;;15.98;7.72;;;;;;;5.99;100.00;98921.59;5086699;28;20359;-78
2023/12/21 03:23:40;;;;;;;12.68;6.55;;;;;;;5.99;100.00;98921.59;5069654;28;20469;-78
2023/12/21 03:26:06;;;;;;;17.98;7.35;;;;;;;5.97;100.00;98910.34;5065358;28;20070;-79
2023/12/21 03:28:32;;;;;;;16.63;7.60;;;;;;;6.04;100.00;98916.56;5086919;28;20032;-78
2023/12/21 03:30:57;;;;;;;15.85;7.35;;;;;;;6.10;100.00;98913.22;5086597;28;20047;-78
2023/12/21 03:33:22;;;;;;;14.20;6.93;;;;;;;6.11;100.00;98909.56;5087107;28;20394;-78
2023/12/21 03:35:48;;;;;;;13.73;6.50;;;;;;;6.14;100.00;98898.63;5070216;28;20302;-78
2023/12/21 03:38:13;;;;;;;15.87;6.63;;;;;;;6.07;100.00;98900.34;5057955;28;20716;-78
2023/12/21 03:40:38;;;;;;;19.47;7.53;;;;;;;6.16;100.00;98895.78;5074973;28;20077;-79
2023/12/21 03:43:04;;;;;;;13.67;5.77;;;;;;;6.28;100.00;98892.53;5060432;28;20040;-79
2023/12/21 03:45:29;;;;;;;14.27;5.27;;;;;;;6.25;100.00;98878.81;5068965;28;20047;-79
2023/12/21 03:47:54;;;;;;;16.17;4.70;;;;;;;6.33;100.00;98866.31;5061413;28;20285;-80
2023/12/21 03:50:20;;;;;;;16.83;4.17;;;;;;;6.44;100.00;98877.47;5069318;28;20028;-79
2023/12/21 03:52:45;;;;;;;28.27;4.93;;;;;;;6.46;100.00;98871.00;5086007;28;20035;-80
2023/12/21 03:55:11;;;;;;;18.53;4.13;;;;;;;6.57;100.00;98861.75;5069688;28;20269;-79
2023/12/21 03:57:36;;;;;;;20.60;4.68;;;;;;;6.64;100.00;98857.34;5086545;28;20046;-79
2023/12/21 04:00:02;;;;;;;17.93;4.23;;;;;;;6.69;100.00;98852.31;5085063;28;20073;-79
2023/12/21 04:02:31;;;;;;;16.77;4.10;;;;;;;6.72;100.00;98833.41;5082949;28;20262;-80
2023/12/21 04:04:56;;;;;;;30.58;6.05;;;;;;;6.78;100.00;98833.69;5069203;28;20095;-78
2023/12/21 04:07:21;;;;;;;15.20;5.05;;;;;;;6.84;100.00;98830.28;5068526;28;20035;-79
2023/12/21 04:09:47;;;;;;;15.60;3.20;;;;;;;6.90;100.00;98826.88;5056408;28;20173;-78
2023/12/21 04:12:12;;;;;;;13.57;3.53;;;;;;;6.83;100.00;98813.53;5071540;28;20081;-78
2023/12/21 04:14:37;;;;;;;10.93;2.50;;;;;;;7.01;100.00;98810.50;5080587;28;20064;-79
2023/12/21 04:17:03;;;;;;;16.87;3.90;;;;;;;7.00;100.00;98803.56;5059773;28;20041;-79
2023/12/21 04:19:28;;;;;;;18.80;3.30;;;;;;;7.09;100.00;98797.09;5082075;28;20036;-79
2023/12/21 04:21:53;;;;;;;12.10;2.10;;;;;;;7.09;100.00;98791.78;5074890;28;20088;-80
2023/12/21 04:24:19;;;;;;;15.43;3.70;;;;;;;7.06;100.00;98770.94;5071732;28;20064;-79
2023/12/21 04:26:44;;;;;;;14.43;3.85;;;;;;;7.16;100.00;98770.63;5071964;28;20463;-79
2023/12/21 04:29:10;;;;;;;13.70;3.33;;;;;;;7.10;100.00;98760.78;5069075;28;20113;-81
2023/12/21 04:31:35;;;;;;;12.83;2.80;;;;;;;7.15;100.00;98756.53;5059703;28;20020;-80
2023/12/21 04:34:00;;;;;;;24.77;3.30;;;;;;;7.16;100.00;98747.59;5064625;28;20314;-81
2023/12/21 04:36:27;;;;;;;16.20;3.87;;;;;;;7.11;100.00;98736.69;5081345;28;20738;-81
2023/12/21 04:38:52;;;;;;;18.60;3.83;;;;;;;7.20;100.00;98734.75;5068584;28;20043;-80
2023/12/21 04:41:18;;;;;;;20.10;4.97;;;;;;;7.17;100.00;98720.03;5062192;28;20036;-81
2023/12/21 04:43:43;;;;;;;19.77;3.30;;;;;;;7.21;100.00;98715.19;5066422;28;20064;-80
2023/12/21 04:46:09;;;;;;;17.58;2.72;;;;;;;7.29;100.00;98706.25;5083644;28;20039;-80
2023/12/21 04:48:34;;;;;;;19.08;3.58;;;;;;;7.26;100.00;98691.53;5082652;28;20032;-81
2023/12/21 04:51:01;;;;;;;19.67;4.33;;;;;;;7.28;100.00;98696.63;5068687;28;20034;-80
2023/12/21 04:53:27;;;;;;;17.63;3.38;;;;;;;7.35;100.00;98679.78;5059540;28;20263;-79
2023/12/21 04:55:52;;;;;;;12.90;2.90;;;;;;;7.35;100.00;98669.16;5068980;28;20181;-79
2023/12/21 04:58:18;;;;;;;19.90;3.67;;;;;;;7.32;100.00;98656.25;5080653;28;20024;-80
2023/12/21 05:00:50;;;;;;;;;;;;;;;7.36;100.00;98644.22;5068843;28;20486;-81
2023/12/21 05:03:19;;;;;;;16.23;3.30;;;;;;;7.23;100.00;98630.03;5085540;28;20358;-80
2023/12/21 05:05:45;;;;;;;13.93;3.05;;;;;;;7.27;100.00;98628.66;5069990;28;20646;-81
2023/12/21 05:08:10;;;;;;;21.60;4.03;;;;;;;7.35;100.00;98617.88;5072221;28;20024;-81
2023/12/21 05:10:36;;;;;;;12.27;2.90;;;;;;;7.36;100.00;98607.06;5066151;28;20688;-81
2023/12/21 05:13:01;;;;;;;8.57;3.00;;;;;;;7.39;100.00;98601.34;5068871;28;20288;-80
2023/12/21 05:15:27;;;;;;;18.53;2.93;;;;;;;7.36;100.00;98587.66;5075052;28;20032;-80
2023/12/21 05:17:52;;;;;;;15.57;3.05;;;;;;;7.37;100.00;98566.25;5065333;28;20527;-82
2023/12/21 05:20:18;;;;;;;17.47;4.13;;;;;;;7.46;100.00;98563.41;5059140;28;20039;-81
2023/12/21 05:22:43;;;;;;;11.93;4.20;;;;;;;7.51;100.00;98564.47;5080182;28;20047;-80
2023/12/21 05:25:09;;;;;;;15.97;3.80;;;;;;;7.35;100.00;98541.72;5064326;28;20038;-80
2023/12/21 05:27:34;;;;;;;13.32;5.03;;;;;;;7.39;100.00;98532.34;5073219;28;20040;-82
2023/12/21 05:29:59;;;;;;;16.00;4.43;;;;;;;7.41;100.00;98524.19;5091229;28;20024;-82
2023/12/21 05:32:25;;;;;;;25.57;4.77;;;;;;;7.54;100.00;98526.09;5090285;28;20057;-81
2023/12/21 05:34:50;;;;;;;16.17;4.03;;;;;;;7.47;100.00;98522.56;5069844;28;20128;-80
2023/12/21 05:37:15;;;;;;;15.67;5.23;;;;;;;7.45;100.00;98501.53;5083117;28;20059;-80
2023/12/21 05:39:44;;;;;;;11.87;4.60;;;;;;;7.47;100.00;98496.88;5076862;28;20854;-81
2023/12/21 05:42:09;;;;;;;13.27;5.65;;;;;;;7.43;100.00;98470.91;5077189;28;20267;-80
2023/12/21 05:44:35;;;;;;;15.30;5.07;;;;;;;7.52;100.00;98462.56;5068591;28;20066;-80
2023/12/21 05:47:00;;;;;;;19.23;5.72;;;;;;;7.59;100.00;98468.72;5058145;28;20032;-80
2023/12/21 05:49:25;;;;;;;14.87;5.73;;;;;;;7.51;100.00;98438.84;5057030;28;20050;-80
2023/12/21 05:51:51;;;;;;;20.47;6.17;;;;;;;7.62;100.00;98448.91;5071768;28;20151;-80
2023/12/21 05:54:16;;;;;;;28.17;5.50;;;;;;;7.53;100.00;98434.97;5082576;28;20028;-81
2023/12/21 05:56:42;;;;;;;19.60;5.90;;;;;;;7.57;100.00;98416.81;5061281;28;20033;-81
2023/12/21 05:59:09;;;;;;;15.65;4.53;;;;;;;7.60;100.00;98406.59;5063799;28;20440;-80
2023/12/21 06:01:34;;;;;;;24.00;4.55;;;;;;;7.59;100.00;98404.97;5088531;28;20051;-80
2023/12/21 06:04:00;;;;;;;15.77;4.63;;;;;;;7.61;100.00;98373.75;5088367;28;20032;-81
2023/12/21 06:06:26;;;;;;;15.73;3.93;;;;;;;7.60;100.00;98369.44;5071888;28;20077;-82
2023/12/21 06:08:52;;;;;;;14.88;3.45;;;;;;;7.63;100.00;98362.09;5071371;28;20047;-79
2023/12/21 06:11:17;;;;;;;11.23;4.43;;;;;;;7.60;100.00;98332.25;5071414;28;20024;-80
2023/12/21 06:13:42;;;;;;;10.50;4.13;;;;;;;7.66;100.00;98329.84;5063033;28;20035;-81
2023/12/21 06:16:11;;;;;;;8.40;3.30;;;;;;;7.69;100.00;98330.22;5071791;28;20084;-80
2023/12/21 06:18:38;;;;;;;10.02;2.50;;;;;;;7.72;100.00;98318.38;5071408;28;20075;-80
2023/12/21 06:21:03;;;;;;;6.22;2.00;;;;;;;7.67;100.00;98307.56;5071425;28;20027;-81
2023/12/21 06:23:29;;;;;;;4.88;2.28;;;;;;;7.64;100.00;98279.56;5079787;28;20046;-80
2023/12/21 06:25:54;;;;;;;4.53;1.57;;;;;;;7.64;100.00;98286.72;5065460;28;20483;-80
2023/12/21 06:28:21;;;;;;;6.57;2.00;;;;;;;7.68;100.00;98269.34;5082428;28;20035;-81
2023/12/21 06:30:47;;;;;;;8.60;1.45;;;;;;;7.66;100.00;98263.44;5074392;28;20051;-79
2023/12/21 06:33:12;;;;;;;1.80;1.30;;;;;;;7.62;100.00;98244.44;5080958;28;20020;-80
2023/12/21 06:35:37;;;;;;;3.92;1.60;;;;;;;7.66;100.00;98255.47;5076828;28;20032;-79
2023/12/21 06:38:03;;;;;;;5.03;0.93;;;;;;;7.64;100.00;98239.72;5070940;28;20035;-79
2023/12/21 06:40:28;;;;;;;2.00;1.53;;;;;;;7.65;100.00;98232.56;5053119;28;20358;-79
2023/12/21 06:42:54;;;;;;;0.70;0.60;;;;;;;7.64;100.00;98215.84;5072674;28;20663;-79
2023/12/21 06:45:19;;;;;;;0.73;0.73;;;;;;;7.67;100.00;98211.94;5047847;28;20280;-79
2023/12/21 06:47:44;;;;;;;4.33;0.80;;;;;;;7.60;100.00;98190.72;5074351;28;20036;-80
2023/12/21 06:50:10;;;;;;;1.93;0.90;;;;;;;7.65;100.00;98184.78;5070857;28;20536;-80
2023/12/21 06:52:35;;;;;;;1.57;0.90;;;;;;;7.71;100.00;98174.16;5087681;28;20039;-79
2023/12/21 06:55:00;;;;;;;2.47;0.50;;;;;;;7.73;100.00;98171.31;5067479;28;20267;-80
2023/12/21 06:57:26;;;;;;;1.87;0.80;;;;;;;7.58;100.00;98148.41;5074621;28;20047;-80
2023/12/21 06:59:51;;;;;;;2.10;0.90;;;;;;;7.72;100.00;98167.81;5070738;28;20031;-79
2023/12/21 07:02:16;;;;;;;0.63;0.50;;;;;;;7.61;100.00;98145.38;5071391;28;20062;-80
2023/12/21 07:04:42;;;;;;;1.47;1.13;;;;;;;7.68;100.00;98155.16;5070543;28;20040;-79
2023/12/21 07:07:07;;;;;;;0.93;0.33;;;;;;;7.75;100.00;98140.00;5087334;28;20027;-79
2023/12/21 07:09:32;;;;;;;0.90;0.60;;;;;;;7.66;100.00;98138.63;5087861;28;20274;-79
2023/12/21 07:12:00;;;;;;;0.73;0.50;;;;;;;7.70;100.00;98143.31;5084319;28;20720;-80
2023/12/21 07:14:26;;;;;;;1.02;0.40;;;;;;;7.71;100.00;98120.22;5066076;28;20039;-78
2023/12/21 07:16:51;;;;;;;0.93;0.57;;;;;;;7.69;100.00;98101.03;5080076;28;20040;-78
2023/12/21 07:19:17;;;;;;;0.70;0.43;;;;;;;7.73;100.00;98102.25;5064974;28;20078;-79
2023/12/21 07:21:43;;;;;;;;;;;;;;;7.76;100.00;98107.13;5056738;28;20095;-79
2023/12/21 07:24:08;;;;;;;1.13;0.50;;;;;;;7.74;100.00;98098.56;5081446;28;19921;-80
2023/12/21 07:26:33;;;;;;;0.87;0.40;;;;;;;7.73;100.00;98107.56;5064788;28;20043;-78
2023/12/21 07:28:59;;;;;;;0.67;0.30;;;;;;;7.82;100.00;98095.69;5081364;28;20031;-81
2023/12/21 07:31:24;;;;;;;0.40;0.23;;;;;;;7.79;100.00;98080.16;5064354;28;20036;-79
2023/12/21 07:33:50;;;;;;;1.13;0.83;;;;;;;7.86;100.00;98078.28;5059903;28;20040;-79
2023/12/21 07:36:16;;;;;;;1.73;0.40;;;;;;;7.81;100.00;98068.28;5080999;28;20020;-79
2023/12/21 07:38:41;;;;;;;1.33;0.30;;;;;;;7.75;100.00;98052.38;5075519;28;20120;-78
2023/12/21 07:41:07;;;;;;;0.50;0.50;;;;;;;7.83;100.00;98066.22;5056662;28;20766;-78
2023/12/21 07:43:33;;;;;;;1.35;0.52;;;;;;;7.88;100.00;98054.97;5066295;28;21000;-79
2023/12/21 07:45:58;;;;;;;0.63;0.37;;;;;;;7.84;100.00;98051.09;5045847;28;20036;-79
2023/12/21 07:48:25;;;;;;;0.38;0.32;;;;;;;7.87;100.00;98048.06;5048438;28;20041;-78
2023/12/21 07:50:50;;;;;;;0.60;0.30;;;;;;;7.81;100.00;98038.25;5062745;28;20029;-79
2023/12/21 07:53:16;;;;;;;0.83;0.43;;;;;;;7.76;100.00;98032.78;5071865;28;20166;-80
2023/12/21 07:55:41;;;;;;;1.13;0.30;;;;;;;7.74;100.00;98029.50;5047637;28;20301;-79
2023/12/21 07:58:07;;;;;;;2.25;0.50;;;;;;;7.85;100.00;98030.69;5045967;28;20028;-78
2023/12/21 08:00:33;;;;;;;0.73;0.60;;;;;;;7.82;100.00;98021.31;5062317;28;20032;-80
2023/12/21 08:02:58;;;;;;;;;;;;;;;7.85;100.00;98014.75;5055274;28;20028;-80
2023/12/21 08:05:24;;;;;;;0.70;0.40;;;;;;;7.87;100.00;98002.09;5049337;28;20282;-80
2023/12/21 08:07:52;;;;;;;0.73;0.20;;;;;;;7.77;100.00;97982.09;5049915;28;20067;-80
2023/12/21 08:10:18;;;;;;;0.30;0.28;;;;;;;7.85;100.00;97965.09;5049456;28;20032;-80
2023/12/21 08:12:44;;;;;;;1.05;0.30;;;;;;;7.85;100.00;97966.94;5072239;28;20460;-80
2023/12/21 08:15:10;;;;;;;1.08;0.28;;;;;;;7.74;100.00;97963.09;5050692;28;20020;-80
2023/12/21 08:17:36;;;;;;;0.50;0.30;;;;;;;7.74;100.00;97918.75;5041464;28;20033;-80
2023/12/21 08:20:04;;;;;;;5.60;0.75;;;;;;;7.76;100.00;97947.78;5065510;28;20036;-80
2023/12/21 08:22:29;;;;;;;0.68;0.30;;;;;;;7.68;100.00;97910.84;5048383;28;20029;-80
2023/12/21 08:24:56;;;;;;;0.63;0.50;;;;;;;7.69;100.00;97912.47;5066731;28;20044;-79
2023/12/21 08:27:21;;;;;;;4.50;0.55;;;;;;;7.64;100.00;97899.03;5050867;28;20617;-80
2023/12/21 08:29:47;;;;;;;0.87;0.40;;;;;;;7.70;100.00;97916.75;5048884;28;20145;-79
2023/12/21 08:32:13;;;;;;;1.80;0.30;;;;;;;7.75;100.00;97907.13;5055667;28;20037;-80
2023/12/21 08:34:39;;;;;;;1.80;0.50;;;;;;;7.75;100.00;97898.31;5048344;28;20069;-78
2023/12/21 08:37:04;;;;;;;1.97;0.57;;;;;;;7.60;100.00;97885.34;5069314;28;20036;-78
2023/12/21 08:39:29;;;;;;;1.60;0.47;;;;;;;7.56;100.00;97877.00;5065040;28;20028;-78
2023/12/21 08:41:54;;;;;;;0.67;0.17;;;;;;;7.64;100.00;97867.16;5067127;28;20032;-78
2023/12/21 08:44:20;;;;;;;0.80;0.37;;;;;;;7.61;100.00;97858.59;5071484;28;20491;-80
2023/12/21 08:46:45;;;;;;;0.32;0.32;;;;;;;7.70;100.00;97848.53;5065493;28;20067;-80
2023/12/21 08:49:12;;;;;;;0.60;0.23;;;;;;;7.65;100.00;97835.06;5075742;28;20035;-80
2023/12/21 08:51:38;;;;;;;2.40;0.50;;;;;;;7.73;100.00;97826.06;5070151;28;20047;-80
2023/12/21 08:54:05;;;;;;;0.88;0.40;;;;;;;7.60;100.00;97813.66;5081128;28;20028;-79
2023/12/21 08:56:31;;;;;;;;;;;;;;;7.74;100.00;97825.00;5053689;28;20057;-80
2023/12/21 08:58:56;;;;;;;4.40;0.57;;;;;;;7.66;100.00;97804.03;5072568;28;20327;-81
2023/12/21 09:01:22;;;;;;;1.20;0.63;;;;;;;7.80;100.00;97813.53;5062412;28;20224;-81
2023/12/21 09:03:47;;;;;;;1.67;0.50;;;;;;;7.82;100.00;97808.81;5079250;28;20507;-81
2023/12/21 09:06:12;;;;;;;2.53;0.70;;;;;;;7.74;100.00;97790.47;5059683;28;20101;-79
2023/12/21 09:08:38;;;;;;;4.57;0.90;;;;;;;7.77;100.00;97780.25;5059707;28;20439;-80
2023/12/21 09:11:04;;;;;;;6.17;1.30;;;;;;;7.86;100.00;97782.63;5074152;28;20368;-80
2023/12/21 09:13:29;;;;;;;6.00;0.95;;;;;;;7.85;100.00;97776.50;5060881;28;20023;-81
2023/12/21 09:15:55;;;;;;;2.60;0.90;;;;;;;7.81;100.00;97764.69;5081291;28;20024;-80
2023/12/21 09:18:20;;;;;;;3.58;1.67;;;;;;;7.83;100.00;97768.75;5069056;28;20043;-80
2023/12/21 09:20:46;;;;;;;5.57;1.10;;;;;;;7.83;100.00;97736.06;5057002;28;20048;-80
2023/12/21 09:23:12;;;;;;;3.53;1.42;;;;;;;7.87;100.00;97741.78;5061697;28;20043;-80
2023/12/21 09:25:38;;;;;;;4.85;1.10;;;;;;;7.83;100.00;97736.88;5049793;28;20118;-81
2023/12/21 09:28:04;;;;;;;5.50;1.25;;;;;;;7.83;100.00;97718.28;5078210;28;20056;-80
2023/12/21 09:30:30;;;;;;;9.38;1.35;;;;;;;7.87;100.00;97712.56;5054828;28;20044;-80
2023/12/21 09:32:59;;;;;;;3.38;1.30;;;;;;;7.95;100.00;97702.44;5060105;28;20479;-80
2023/12/21 09:35:24;;;;;;;5.45;0.82;;;;;;;7.91;100.00;97693.28;5076077;28;20031;-79
2023/12/21 09:37:50;;;;;;;3.22;0.85;;;;;;;7.92;100.00;97686.94;5060854;28;20037;-80
2023/12/21 09:40:16;;;;;;;5.80;1.20;;;;;;;7.95;100.00;97675.06;5061553;28;20039;-81
2023/12/21 09:42:48;;;;;;;4.22;1.17;;;;;;;7.92;100.00;97655.06;5058002;28;20056;-79
2023/12/21 09:45:14;;;;;;;5.57;1.40;;;;;;;7.92;100.00;97659.56;5061340;28;20036;-80
2023/12/21 09:47:41;;;;;;;5.65;1.10;;;;;;;7.99;100.00;97655.81;5066030;28;20039;-80
2023/12/21 09:50:08;;;;;;;8.38;2.25;;;;;;;7.97;100.00;97639.28;5041930;28;20123;-79
2023/12/21 09:52:34;;;;;;;;;;;;;;;7.93;100.00;97637.28;5058030;28;20051;-79
2023/12/21 09:55:01;;;;;;;4.28;1.20;;;;;;;7.94;100.00;97636.25;5076991;28;19916;-80
2023/12/21 09:57:27;;;;;;;8.02;2.13;;;;;;;8.06;100.00;97641.66;5080196;28;20032;-79
2023/12/21 09:59:56;;;;;;;6.23;1.03;;;;;;;8.00;100.00;97640.66;5075797;28;20597;-79
2023/12/21 10:02:26;;;;;;;4.85;1.17;;;;;;;8.09;100.00;97638.53;5063553;28;20047;-79
2023/12/21 10:04:52;;;;;;;4.38;1.40;;;;;;;7.96;100.00;97599.63;5076599;28;20059;-80
2023/12/21 10:07:18;;;;;;;5.85;0.98;;;;;;;8.08;100.00;97621.78;5064659;28;20483;-79
2023/12/21 10:09:43;;;;;;;11.63;1.55;;;;;;;8.11;100.00;97608.03;5067969;28;20028;-81
2023/12/21 10:12:09;;;;;;;6.45;1.20;;;;;;;8.24;100.00;97615.03;5064746;28;20028;-81
2023/12/21 10:14:34;;;;;;;8.15;1.20;;;;;;;8.20;100.00;97597.94;5076082;28;20044;-82
2023/12/21 10:17:01;;;;;;;5.85;1.23;;;;;;;8.17;100.00;97588.56;5052344;28;20040;-81
2023/12/21 10:19:26;;;;;;;6.18;1.23;;;;;;;8.17;100.00;97601.84;5077853;28;20133;-81
2023/12/21 10:21:53;;;;;;;11.27;1.67;;;;;;;8.22;100.00;97575.41;5061335;28;20036;-80
2023/12/21 10:24:18;;;;;;;10.07;2.50;;;;;;;8.19;100.00;97575.03;5080447;28;20635;-81
2023/12/21 10:26:45;;;;;;;7.10;1.30;;;;;;;8.31;100.00;97580.41;5084697;28;20032;-79
2023/12/21 10:29:17;;;;;;;9.35;1.63;;;;;;;8.31;100.00;97573.25;5070908;28;20407;-79
2023/12/21 10:31:47;;;;;;;11.25;1.80;;;;;;;8.33;100.00;97576.47;5078818;28;20043;-79
2023/12/21 10:34:14;;;;;;;10.27;1.83;;;;;;;8.38;100.00;97576.63;5080480;28;20035;-80
2023/12/21 10:36:44;;;;;;;7.18;1.67;;;;;;;8.40;100.00;97555.97;5060446;28;20020;-80
2023/12/21 10:39:14;;;;;;;6.97;1.80;;;;;;;8.47;100.00;97552.41;5081074;28;20029;-81
2023/12/21 10:41:44;;;;;;;10.20;2.15;;;;;;;8.59;100.00;97542.59;5060433;28;20029;-80
2023/12/21 10:44:14;;;;;;;13.18;1.88;;;;;;;8.52;100.00;97520.63;5054735;28;20036;-81
2023/12/21 10:46:41;;;;;;;12.82;2.20;;;;;;;8.56;100.00;97514.63;5075163;28;20028;-83
2023/12/21 10:49:12;;;;;;;20.30;2.35;;;;;;;8.56;100.00;97511.16;5061619;28;20032;-81
2023/12/21 10:51:40;;;;;;;14.30;3.45;;;;;;;8.61;100.00;97498.78;5055158;28;20043;-82
2023/12/21 10:54:11;;;;;;;14.82;2.33;;;;;;;8.65;100.00;97489.31;5063407;28;20506;-81
2023/12/21 10:56:56;;;;;;;18.45;3.10;;;;;;;8.73;100.00;97474.06;5070403;28;20039;-81
2023/12/21 10:59:23;;;;;;;18.55;3.95;;;;;;;8.72;100.00;97459.97;5072176;28;20040;-81
2023/12/21 11:01:48;;;;;;;;;;;;;;;8.85;100.00;97461.59;5078825;28;20117;-80
2023/12/21 11:04:16;;;;;;;12.93;2.65;;;;;;;8.62;100.00;97435.81;5080330;28;20391;-81
2023/12/21 11:06:43;;;;;;;13.30;3.33;;;;;;;8.56;100.00;97426.06;5072058;28;20047;-81
2023/12/21 11:09:11;;;;;;;19.38;3.47;;;;;;;8.55;100.00;97440.41;5067457;28;20025;-80
2023/12/21 11:11:36;;;;;;;18.88;3.22;;;;;;;8.55;100.00;97440.41;5063102;28;20341;-81
2023/12/21 11:14:01;;;;;;;17.40;3.80;;;;;;;8.54;100.00;97430.81;5057683;28;20040;-79
2023/12/21 11:16:36;;;;;;;21.70;3.07;;;;;;;8.48;100.00;97424.56;5061418;28;20285;-79
2023/12/21 11:19:04;;;;;;;14.82;3.50;;;;;;;8.43;100.00;97411.97;5058821;28;20044;-79
2023/12/21 11:21:30;;;;;;;23.27;3.65;;;;;;;8.50;100.00;97419.84;5071646;28;20121;-80
2023/12/21 11:23:56;;;;;;;13.98;2.42;;;;;;;8.38;100.00;97406.50;5078039;28;20655;-80
2023/12/21 11:26:25;;;;;;;16.88;2.90;;;;;;;8.40;100.00;97422.25;5051183;28;20046;-81